createdAt,value
2022-07-29T00:02:14.493Z,100854.75
2022-07-29T00:04:41.200Z,100851.28
2022-07-29T00:07:07.832Z,100840.34
2022-07-29T00:09:42.965Z,100842.22
2022-07-29T00:12:21.429Z,100847.44
2022-07-29T00:14:55.215Z,100847.44
2022-07-29T00:17:21.836Z,100840.19
2022-07-29T00:19:48.335Z,100844.56
2022-07-29T00:22:15.047Z,100849.53
2022-07-29T00:24:41.782Z,100843.97
2022-07-29T00:27:08.330Z,100837.56
2022-07-29T00:29:35.326Z,100830.09
2022-07-29T00:32:03.162Z,100826.56
2022-07-29T00:34:48.709Z,100818.69
2022-07-29T00:37:15.242Z,100811.69
2022-07-29T00:39:41.922Z,100816.84
2022-07-29T00:42:08.973Z,100815.81
2022-07-29T00:44:39.852Z,100812.28
2022-07-29T00:47:07.296Z,100811.47
2022-07-29T00:49:35.115Z,100804.22
2022-07-29T00:52:03.763Z,100803.63
2022-07-29T00:54:31.176Z,100796.03
2022-07-29T00:56:59.976Z,100797.69
2022-07-29T00:59:34.627Z,100787.97
2022-07-29T01:02:03.661Z,100787.19
2022-07-29T01:04:31.790Z,100783.25
2022-07-29T01:06:58.540Z,100782.41
2022-07-29T01:09:35.029Z,100783.00
2022-07-29T01:12:19.359Z,100779.72
2022-07-29T01:14:47.706Z,100774.59
2022-07-29T01:17:39.075Z,100787.81
2022-07-29T01:20:44.723Z,100788.22
2022-07-29T01:23:26.133Z,100794.63
2022-07-29T01:26:09.331Z,100790.28
2022-07-29T01:28:41.133Z,100781.84
2022-07-29T01:31:11.456Z,100787.81
2022-07-29T01:33:49.689Z,100784.94
2022-07-29T01:36:32.033Z,100779.38
2022-07-29T01:39:07.223Z,100777.31
2022-07-29T01:41:37.175Z,100778.56
2022-07-29T01:44:16.042Z,100774.44
2022-07-29T01:46:57.120Z,100756.50
2022-07-29T01:49:37.626Z,100766.63
2022-07-29T01:52:14.139Z,100746.59
2022-07-29T01:54:58.315Z,100757.13
2022-07-29T01:57:30.224Z,100753.63
2022-07-29T01:59:59.492Z,100764.03
2022-07-29T02:02:28.996Z,100768.38
2022-07-29T02:04:57.286Z,100768.97
2022-07-29T02:07:27.717Z,100760.75
2022-07-29T02:09:55.787Z,100765.09
2022-07-29T02:12:25.098Z,100763.47
2022-07-29T02:14:53.983Z,100755.66
2022-07-29T02:17:27.410Z,100752.75
2022-07-29T02:19:59.112Z,100754.00
2022-07-29T02:22:27.851Z,100753.38
2022-07-29T02:24:54.712Z,100758.56
2022-07-29T02:27:21.910Z,100762.53
2022-07-29T02:29:50.055Z,100759.63
2022-07-29T02:32:18.199Z,100765.84
2022-07-29T02:34:45.753Z,100763.34
2022-07-29T02:37:13.578Z,100763.38
2022-07-29T02:39:43.139Z,100755.34
2022-07-29T02:42:13.672Z,100761.09
2022-07-29T02:44:40.295Z,100765.47
2022-07-29T02:47:27.751Z,100772.25
2022-07-29T02:50:22.265Z,100778.47
2022-07-29T02:52:58.671Z,100779.84
2022-07-29T02:55:43.688Z,100779.69
2022-07-29T02:58:29.478Z,100782.19
2022-07-29T03:01:05.113Z,100783.81
2022-07-29T03:03:38.266Z,100788.72
2022-07-29T03:06:07.360Z,100788.72
2022-07-29T03:08:35.782Z,100785.88
2022-07-29T03:11:03.090Z,100789.13
2022-07-29T03:13:31.057Z,100788.97
2022-07-29T03:15:59.136Z,100786.47
2022-07-29T03:18:26.864Z,100792.03
2022-07-29T03:20:53.915Z,100797.81
2022-07-29T03:23:23.619Z,100797.63
2022-07-29T03:25:53.921Z,100790.22
2022-07-29T03:28:22.143Z,100787.09
2022-07-29T03:30:49.165Z,100787.75
2022-07-29T03:33:16.389Z,100788.75
2022-07-29T03:35:43.309Z,100795.13
2022-07-29T03:38:09.860Z,100790.81
2022-07-29T03:40:45.906Z,100806.91
2022-07-29T03:43:14.274Z,100788.56
2022-07-29T03:45:45.212Z,100788.56
2022-07-29T03:48:14.969Z,100781.53
2022-07-29T03:50:41.606Z,100786.72
2022-07-29T03:53:08.947Z,100788.56
2022-07-29T03:55:42.910Z,100789.19
2022-07-29T03:58:10.685Z,100787.75
2022-07-29T04:00:38.590Z,100786.09
2022-07-29T04:03:06.144Z,100785.88
2022-07-29T04:05:38.269Z,100787.53
2022-07-29T04:08:05.183Z,100788.38
2022-07-29T04:10:33.982Z,100793.31
2022-07-29T04:13:01.091Z,100795.38
2022-07-29T04:15:30.898Z,100791.03
2022-07-29T04:17:58.727Z,100788.38
2022-07-29T04:20:25.263Z,100800.94
2022-07-29T04:22:51.748Z,100800.53
2022-07-29T04:25:18.367Z,100800.94
2022-07-29T04:28:01.173Z,100797.63
2022-07-29T04:30:28.072Z,100798.88
2022-07-29T04:32:54.726Z,100813.31
2022-07-29T04:35:21.400Z,100813.50
2022-07-29T04:37:47.957Z,100814.75
2022-07-29T04:40:14.911Z,100809.59
2022-07-29T04:42:46.406Z,100812.09
2022-07-29T04:45:14.838Z,100825.28
2022-07-29T04:47:42.666Z,100818.47
2022-07-29T04:50:10.054Z,100823.00
2022-07-29T04:52:36.856Z,100820.97
2022-07-29T04:55:04.779Z,100815.19
2022-07-29T04:57:31.512Z,100818.88
2022-07-29T04:59:58.124Z,100823.00
2022-07-29T05:02:24.873Z,100833.31
2022-07-29T05:04:51.453Z,100844.88
2022-07-29T05:07:17.964Z,100841.78
2022-07-29T05:09:44.579Z,100843.63
2022-07-29T05:12:11.822Z,100845.50
2022-07-29T05:14:38.500Z,100838.25
2022-07-29T05:17:05.116Z,100846.94
2022-07-29T05:19:31.732Z,100849.41
2022-07-29T05:21:58.322Z,100842.81
2022-07-29T05:24:24.885Z,100850.84
2022-07-29T05:26:51.448Z,100847.13
2022-07-29T05:29:43.889Z,100858.50
2022-07-29T05:32:05.643Z,100856.00
2022-07-29T05:34:32.593Z,100863.03
2022-07-29T05:36:59.564Z,100873.56
2022-07-29T05:39:47.072Z,100877.47
2022-07-29T05:42:12.700Z,100885.09
2022-07-29T05:44:41.096Z,100891.31
2022-07-29T05:47:07.616Z,100910.25
2022-07-29T05:49:34.245Z,100914.16
2022-07-29T05:52:00.923Z,100915.63
2022-07-29T05:54:27.533Z,100918.16
2022-07-29T05:56:54.224Z,100922.50
2022-07-29T05:59:20.790Z,100919.81
2022-07-29T06:01:47.414Z,100929.72
2022-07-29T06:04:14.401Z,100929.72
2022-07-29T06:06:41.130Z,100920.25
2022-07-29T06:09:12.296Z,100927.47
2022-07-29T06:11:39.529Z,100922.28
2022-07-29T06:14:06.160Z,100924.53
2022-07-29T06:16:32.839Z,100917.94
2022-07-29T06:18:59.613Z,100920.22
2022-07-29T06:21:26.450Z,100920.22
2022-07-29T06:23:53.020Z,100929.50
2022-07-29T06:26:19.580Z,100925.97
2022-07-29T06:28:57.438Z,100925.75
2022-07-29T06:31:24.077Z,100927.84
2022-07-29T06:33:50.692Z,100923.31
2022-07-29T06:36:17.348Z,100919.19
2022-07-29T06:38:49.209Z,100919.78
2022-07-29T06:41:18.309Z,100901.44
2022-07-29T06:43:52.153Z,100904.50
2022-07-29T06:46:22.339Z,100899.78
2022-07-29T06:48:49.866Z,100905.16
2022-07-29T06:51:22.238Z,100911.56
2022-07-29T06:53:59.500Z,100926.81
2022-07-29T06:56:42.099Z,100927.88
2022-07-29T06:59:10.866Z,100924.13
2022-07-29T07:01:39.413Z,100911.34
2022-07-29T07:04:06.728Z,100905.56
2022-07-29T07:06:33.574Z,100889.88
2022-07-29T07:09:00.103Z,100897.19
2022-07-29T07:11:26.639Z,100911.16
2022-07-29T07:13:53.166Z,100932.69
2022-07-29T07:16:19.879Z,100932.72
2022-07-29T07:18:46.491Z,100934.94
2022-07-29T07:21:13.303Z,100932.75
2022-07-29T07:23:46.346Z,100941.03
2022-07-29T07:26:12.979Z,100948.91
2022-07-29T07:28:39.522Z,100963.38
2022-07-29T07:31:06.273Z,100955.91
2022-07-29T07:33:32.827Z,100954.03
2022-07-29T07:35:59.491Z,100953.81
2022-07-29T07:38:26.016Z,100942.63
2022-07-29T07:40:52.735Z,100936.84
2022-07-29T07:43:19.305Z,100931.94
2022-07-29T07:45:45.901Z,100926.78
2022-07-29T07:48:12.496Z,100928.06
2022-07-29T07:50:39.081Z,100916.06
2022-07-29T07:53:05.928Z,100915.06
2022-07-29T07:55:53.578Z,100912.97
2022-07-29T07:58:19.001Z,100906.59
2022-07-29T08:00:45.635Z,100907.44
2022-07-29T08:03:17.002Z,100922.06
2022-07-29T08:05:44.043Z,100922.72
2022-07-29T08:08:10.701Z,100922.69
2022-07-29T08:10:56.101Z,100914.44
2022-07-29T08:13:26.551Z,100910.94
2022-07-29T08:15:58.711Z,100918.75
2022-07-29T08:18:32.164Z,100917.31
2022-07-29T08:20:59.500Z,100924.31
2022-07-29T08:23:32.904Z,100925.38
2022-07-29T08:26:14.480Z,100934.28
2022-07-29T08:28:45.725Z,100934.44
2022-07-29T08:31:13.741Z,100934.22
2022-07-29T08:33:40.394Z,100926.38
2022-07-29T08:36:07.449Z,100927.81
2022-07-29T08:38:34.242Z,100926.81
2022-07-29T08:41:04.195Z,100926.59
2022-07-29T08:43:30.760Z,100927.34
2022-07-29T08:45:57.298Z,100928.91
2022-07-29T08:48:24.921Z,100926.75
2022-07-29T08:50:56.766Z,100929.88
2022-07-29T08:53:27.434Z,100936.03
2022-07-29T08:55:54.247Z,100936.81
2022-07-29T08:58:24.654Z,100933.09
2022-07-29T09:00:55.460Z,100937.44
2022-07-29T09:03:30.600Z,100933.81
2022-07-29T09:05:57.617Z,100930.41
2022-07-29T09:08:24.766Z,100922.13
2022-07-29T09:10:52.246Z,100923.72
2022-07-29T09:13:19.110Z,100913.94
2022-07-29T09:15:46.303Z,100913.19
2022-07-29T09:18:20.341Z,100925.91
2022-07-29T09:21:15.835Z,100924.59
2022-07-29T09:23:43.853Z,100921.63
2022-07-29T09:26:10.411Z,100927.69
2022-07-29T09:28:43.439Z,100925.94
2022-07-29T09:31:10.142Z,100922.94
2022-07-29T09:33:40.047Z,100923.78
2022-07-29T09:36:08.859Z,100921.09
2022-07-29T09:38:37.632Z,100928.41
2022-07-29T09:41:07.029Z,100919.84
2022-07-29T09:43:34.716Z,100924.59
2022-07-29T09:46:12.725Z,100924.25
2022-07-29T09:48:39.418Z,100922.47
2022-07-29T09:51:07.450Z,100917.47
2022-07-29T09:53:37.280Z,100921.66
2022-07-29T09:56:06.689Z,100928.22
2022-07-29T09:58:34.723Z,100912.00
2022-07-29T10:01:01.570Z,100902.41
2022-07-29T10:03:28.452Z,100911.91
2022-07-29T10:06:11.119Z,100927.78
2022-07-29T10:08:38.312Z,100925.09
2022-07-29T10:11:13.642Z,100926.41
2022-07-29T10:13:41.847Z,100924.09
2022-07-29T10:16:09.340Z,100910.25
2022-07-29T10:18:36.238Z,100919.41
2022-07-29T10:21:03.057Z,100909.84
2022-07-29T10:23:31.052Z,100914.59
2022-07-29T10:26:15.466Z,100903.41
2022-07-29T10:28:42.222Z,100904.13
2022-07-29T10:31:20.351Z,100904.09
2022-07-29T10:33:59.893Z,100909.00
2022-07-29T10:37:06.703Z,100901.31
2022-07-29T10:39:41.888Z,100906.28
2022-07-29T10:42:29.812Z,100905.31
2022-07-29T10:45:02.614Z,100906.72
2022-07-29T10:47:31.681Z,100904.56
2022-07-29T10:50:01.858Z,100910.19
2022-07-29T10:52:58.426Z,100903.19
2022-07-29T10:55:35.688Z,100904.88
2022-07-29T10:58:21.721Z,100911.91
2022-07-29T11:00:50.624Z,100905.00
2022-07-29T11:03:50.277Z,100906.88
2022-07-29T11:06:18.214Z,100898.13
2022-07-29T11:09:20.370Z,100901.16
2022-07-29T11:11:53.139Z,100900.72
2022-07-29T11:14:56.680Z,100896.28
2022-07-29T11:17:24.615Z,100895.28
2022-07-29T11:19:52.259Z,100885.69
2022-07-29T11:22:35.517Z,100893.06
2022-07-29T11:25:18.833Z,100896.22
2022-07-29T11:27:48.424Z,100898.94
2022-07-29T11:30:15.099Z,100894.72
2022-07-29T11:32:48.595Z,100900.06
2022-07-29T11:38:28.684Z,100894.41
2022-07-29T11:41:25.482Z,100891.28
2022-07-29T11:43:55.907Z,100888.66
2022-07-29T11:46:46.435Z,100889.91
2022-07-29T11:49:15.477Z,100895.19
2022-07-29T11:51:48.089Z,100892.47
2022-07-29T11:54:27.456Z,100888.28
2022-07-29T11:56:54.873Z,100893.22
2022-07-29T11:59:22.364Z,100893.50
2022-07-29T12:04:58.142Z,100896.72
2022-07-29T12:07:01.567Z,100898.06
2022-07-29T12:07:03.341Z,100890.84
2022-07-29T12:07:33.842Z,100896.53
2022-07-29T12:10:02.532Z,100894.88
2022-07-29T12:12:29.413Z,100892.13
2022-07-29T12:14:56.410Z,100888.03
2022-07-29T12:17:41.709Z,100895.53
2022-07-29T12:20:08.529Z,100890.56
2022-07-29T12:22:39.072Z,100883.66
2022-07-29T12:25:32.668Z,100884.53
2022-07-29T12:28:02.158Z,100895.34
2022-07-29T12:30:42.302Z,100894.75
2022-07-29T12:33:12.454Z,100888.78
2022-07-29T12:35:39.593Z,100887.66
2022-07-29T12:38:06.512Z,100888.56
2022-07-29T12:40:33.149Z,100888.97
2022-07-29T12:43:17.488Z,100885.72
2022-07-29T12:45:47.098Z,100880.47
2022-07-29T12:48:15.215Z,100887.09
2022-07-29T12:50:56.770Z,100884.06
2022-07-29T12:53:23.512Z,100886.59
2022-07-29T12:55:55.374Z,100876.88
2022-07-29T12:58:37.620Z,100881.72
2022-07-29T13:01:17.610Z,100874.66
2022-07-29T13:04:01.027Z,100864.28
2022-07-29T13:06:45.994Z,100869.88
2022-07-29T13:09:19.077Z,100871.16
2022-07-29T13:11:48.746Z,100873.94
2022-07-29T13:14:32.590Z,100860.22
2022-07-29T13:17:10.036Z,100863.63
2022-07-29T13:20:13.320Z,100866.09
2022-07-29T13:22:40.998Z,100868.84
2022-07-29T13:25:08.023Z,100877.09
2022-07-29T13:27:37.434Z,100877.13
2022-07-29T13:30:07.535Z,100872.78
2022-07-29T13:32:35.507Z,100871.13
2022-07-29T13:35:05.734Z,100873.84
2022-07-29T13:37:35.120Z,100874.03
2022-07-29T13:40:04.195Z,100872.50
2022-07-29T13:42:32.350Z,100867.34
2022-07-29T13:44:59.918Z,100872.13
2022-07-29T13:47:32.550Z,100873.81
2022-07-29T13:50:00.589Z,100864.69
2022-07-29T13:52:27.189Z,100862.88
2022-07-29T13:54:53.759Z,100866.06
2022-07-29T13:57:20.334Z,100873.47
2022-07-29T13:59:50.602Z,100870.59
2022-07-29T14:02:20.606Z,100873.66
2022-07-29T14:04:47.657Z,100872.31
2022-07-29T14:07:17.335Z,100867.44
2022-07-29T14:09:44.093Z,100866.13
2022-07-29T14:12:10.824Z,100873.91
2022-07-29T14:14:37.691Z,100870.91
2022-07-29T14:17:07.540Z,100871.53
2022-07-29T14:19:39.142Z,100869.91
2022-07-29T14:22:06.675Z,100873.81
2022-07-29T14:24:36.412Z,100871.75
2022-07-29T14:27:07.598Z,100875.44
2022-07-29T14:29:37.605Z,100863.28
2022-07-29T14:32:08.205Z,100866.13
2022-07-29T14:34:36.613Z,100878.22
2022-07-29T14:37:06.110Z,100881.25
2022-07-29T14:39:32.939Z,100883.47
2022-07-29T14:42:00.512Z,100884.38
2022-07-29T14:44:32.172Z,100886.25
2022-07-29T14:47:07.642Z,100891.91
2022-07-29T14:49:34.843Z,100893.00
2022-07-29T14:52:01.664Z,100889.47
2022-07-29T14:54:28.435Z,100882.88
2022-07-29T14:56:57.940Z,100892.34
2022-07-29T14:59:24.806Z,100891.47
2022-07-29T15:01:52.538Z,100898.88
2022-07-29T15:04:19.193Z,100894.84
2022-07-29T15:06:45.811Z,100899.75
2022-07-29T15:09:12.875Z,100897.03
2022-07-29T15:11:39.499Z,100903.72
2022-07-29T15:14:06.810Z,100899.81
2022-07-29T15:16:33.956Z,100900.75
2022-07-29T15:19:01.337Z,100899.09
2022-07-29T15:21:28.210Z,100890.53
2022-07-29T15:23:54.772Z,100895.44
2022-07-29T15:26:21.423Z,100896.16
2022-07-29T15:28:49.082Z,100889.75
2022-07-29T15:31:16.114Z,100889.47
2022-07-29T15:33:42.808Z,100891.22
2022-07-29T15:36:09.595Z,100891.91
2022-07-29T15:38:36.329Z,100887.69
2022-07-29T15:41:08.610Z,100900.31
2022-07-29T15:43:36.194Z,100890.97
2022-07-29T15:46:21.364Z,100890.63
2022-07-29T15:48:48.204Z,100884.22
2022-07-29T15:51:15.179Z,100895.75
2022-07-29T15:53:41.759Z,100895.91
2022-07-29T15:56:08.405Z,100894.09
2022-07-29T15:58:34.980Z,100893.06
2022-07-29T16:01:01.610Z,100898.75
2022-07-29T16:03:28.343Z,100895.84
2022-07-29T16:05:54.903Z,100894.94
2022-07-29T16:08:21.498Z,100902.16
2022-07-29T16:10:48.035Z,100895.78
2022-07-29T16:13:17.055Z,100898.88
2022-07-29T16:16:02.366Z,100886.09
2022-07-29T16:18:30.501Z,100897.00
2022-07-29T16:20:57.736Z,100887.22
2022-07-29T16:23:24.765Z,100893.97
2022-07-29T16:25:59.691Z,100895.53
2022-07-29T16:28:27.832Z,100893.63
2022-07-29T16:30:54.421Z,100891.75
2022-07-29T16:33:21.021Z,100889.03
2022-07-29T16:35:47.573Z,100893.72
2022-07-29T16:38:14.106Z,100881.66
2022-07-29T16:40:41.492Z,100889.03
2022-07-29T16:43:08.754Z,100886.13
2022-07-29T16:45:45.989Z,100894.06
2022-07-29T16:48:14.334Z,100890.47
2022-07-29T16:50:41.519Z,100900.75
2022-07-29T16:53:10.486Z,100896.50
2022-07-29T16:55:37.206Z,100889.41
2022-07-29T16:58:03.894Z,100895.06
2022-07-29T17:00:30.515Z,100904.38
2022-07-29T17:02:57.208Z,100905.34
2022-07-29T17:05:24.237Z,100910.00
2022-07-29T17:07:50.824Z,100910.59
2022-07-29T17:10:17.548Z,100912.47
2022-07-29T17:12:44.650Z,100915.75
2022-07-29T17:15:12.082Z,100923.69
2022-07-29T17:17:55.450Z,100924.25
2022-07-29T17:20:23.466Z,100927.13
2022-07-29T17:22:50.154Z,100924.25
2022-07-29T17:25:20.669Z,100930.66
2022-07-29T17:27:49.707Z,100931.56
2022-07-29T17:30:16.565Z,100924.50
2022-07-29T17:32:43.144Z,100920.78
2022-07-29T17:35:29.106Z,100923.19
2022-07-29T17:37:55.702Z,100928.06
2022-07-29T17:40:22.566Z,100922.88
2022-07-29T17:42:49.170Z,100929.09
2022-07-29T17:45:16.036Z,100937.81
2022-07-29T17:47:42.540Z,100941.25
2022-07-29T17:50:09.254Z,100941.50
2022-07-29T17:52:35.796Z,100947.78
2022-07-29T17:55:02.631Z,100945.19
2022-07-29T17:57:29.233Z,100942.72
2022-07-29T17:59:55.826Z,100952.94
2022-07-29T18:02:22.500Z,100943.88
2022-07-29T18:04:51.556Z,100949.88
2022-07-29T18:07:18.545Z,100950.53
2022-07-29T18:09:45.215Z,100950.66
2022-07-29T18:12:11.785Z,100954.00
2022-07-29T18:14:38.613Z,100958.50
2022-07-29T18:17:05.188Z,100960.38
2022-07-29T18:19:31.823Z,100959.22
2022-07-29T18:22:04.867Z,100961.09
2022-07-29T18:24:32.173Z,100966.16
2022-07-29T18:26:58.919Z,100963.84
2022-07-29T18:29:28.824Z,100968.31
2022-07-29T18:31:55.694Z,100968.56
2022-07-29T18:34:22.236Z,100967.13
2022-07-29T18:36:48.797Z,100969.13
2022-07-29T18:39:20.975Z,100961.88
2022-07-29T18:41:50.499Z,100965.16
2022-07-29T18:44:18.890Z,100976.09
2022-07-29T18:46:47.287Z,100976.09
2022-07-29T18:49:14.676Z,100973.41
2022-07-29T18:51:41.344Z,100974.38
2022-07-29T18:54:09.354Z,100976.81
2022-07-29T18:56:36.141Z,100981.88
2022-07-29T18:59:03.253Z,100982.69
2022-07-29T19:01:31.668Z,100973.53
2022-07-29T19:03:58.994Z,100978.25
2022-07-29T19:06:26.152Z,100984.94
2022-07-29T19:08:53.408Z,100975.00
2022-07-29T19:11:20.137Z,100976.03
2022-07-29T19:13:46.765Z,100972.63
2022-07-29T19:16:14.550Z,100984.69
2022-07-29T19:18:41.537Z,100985.28
2022-07-29T19:21:08.111Z,100984.47
2022-07-29T19:24:01.574Z,100976.88
2022-07-29T19:26:21.499Z,100984.72
2022-07-29T19:28:48.860Z,100987.19
2022-07-29T19:31:18.993Z,100992.91
2022-07-29T19:33:45.617Z,100989.22
2022-07-29T19:36:12.139Z,100992.09
2022-07-29T19:38:39.557Z,101002.19
2022-07-29T19:41:06.626Z,100998.53
2022-07-29T19:43:50.752Z,101001.44
2022-07-29T19:46:18.829Z,101011.25
2022-07-29T19:48:45.708Z,101010.97
2022-07-29T19:51:12.258Z,101012.50
2022-07-29T19:53:38.826Z,101015.19
2022-07-29T19:56:05.690Z,101013.84
2022-07-29T19:58:35.728Z,101014.97
2022-07-29T20:01:03.184Z,101018.69
2022-07-29T20:03:39.695Z,101024.38
2022-07-29T20:06:06.709Z,101023.41
2022-07-29T20:08:33.330Z,101020.09
2022-07-29T20:10:59.891Z,101031.34
2022-07-29T20:13:26.556Z,101034.47
2022-07-29T20:15:53.317Z,101033.00
2022-07-29T20:18:20.022Z,101036.38
2022-07-29T20:20:48.122Z,101043.69
2022-07-29T20:23:14.830Z,101046.03
2022-07-29T20:25:41.706Z,101043.13
2022-07-29T20:28:08.394Z,101038.56
2022-07-29T20:30:34.968Z,101043.75
2022-07-29T20:33:05.344Z,101047.06
2022-07-29T20:35:32.033Z,101043.31
2022-07-29T20:37:59.751Z,101039.41
2022-07-29T20:40:27.264Z,101040.91
2022-07-29T20:42:55.103Z,101038.81
2022-07-29T20:45:23.461Z,101039.25
2022-07-29T20:47:51.693Z,101041.53
2022-07-29T20:50:19.186Z,101042.38
2022-07-29T20:52:45.901Z,101041.53
2022-07-29T20:55:12.647Z,101043.19
2022-07-29T20:57:39.958Z,101054.19
2022-07-29T21:00:07.741Z,101061.47
2022-07-29T21:02:34.491Z,101048.78
2022-07-29T21:05:01.155Z,101051.28
2022-07-29T21:07:27.757Z,101066.38
2022-07-29T21:09:54.297Z,101070.97
2022-07-29T21:12:20.881Z,101068.72
2022-07-29T21:14:51.290Z,101067.66
2022-07-29T21:17:21.280Z,101067.88
2022-07-29T21:19:52.423Z,101068.91
2022-07-29T21:22:21.686Z,101069.75
2022-07-29T21:24:48.857Z,101076.19
2022-07-29T21:27:33.938Z,101076.19
2022-07-29T21:30:00.525Z,101084.28
2022-07-29T21:32:29.679Z,101082.22
2022-07-29T21:34:57.020Z,101084.09
2022-07-29T21:37:23.620Z,101084.56
2022-07-29T21:39:50.170Z,101083.91
2022-07-29T21:42:16.855Z,101085.19
2022-07-29T21:44:43.519Z,101088.31
2022-07-29T21:47:11.638Z,101092.69
2022-07-29T21:49:38.539Z,101094.63
2022-07-29T21:52:05.754Z,101097.72
2022-07-29T21:54:34.598Z,101099.00
2022-07-29T21:57:01.192Z,101101.94
2022-07-29T21:59:27.762Z,101108.19
2022-07-29T22:01:54.788Z,101107.75
2022-07-29T22:04:21.443Z,101107.53
2022-07-29T22:06:48.145Z,101109.47
2022-07-29T22:09:14.749Z,101106.53
2022-07-29T22:11:42.009Z,101109.28
2022-07-29T22:14:08.540Z,101111.72
2022-07-29T22:16:35.297Z,101111.16
2022-07-29T22:19:03.947Z,101115.69
2022-07-29T22:21:30.861Z,101111.94
2022-07-29T22:23:57.578Z,101111.97
2022-07-29T22:26:24.212Z,101106.00
2022-07-29T22:28:50.801Z,101109.75
2022-07-29T22:31:17.417Z,101109.34
2022-07-29T22:33:44.113Z,101106.88
2022-07-29T22:36:10.759Z,101098.59
2022-07-29T22:38:37.482Z,101114.34
2022-07-29T22:41:07.224Z,101103.03
2022-07-29T22:43:35.115Z,101107.81
2022-07-29T22:46:01.779Z,101102.63
2022-07-29T22:48:28.361Z,101103.03
2022-07-29T22:50:54.917Z,101101.38
2022-07-29T22:53:22.134Z,101092.25
2022-07-29T22:55:48.690Z,101092.91
2022-07-29T22:58:15.201Z,101088.34
2022-07-29T23:00:41.714Z,101085.44
2022-07-29T23:03:08.242Z,101086.72
2022-07-29T23:05:34.853Z,101084.66
2022-07-29T23:08:01.536Z,101074.09
2022-07-29T23:10:28.366Z,101073.72
2022-07-29T23:12:54.878Z,101073.47
2022-07-29T23:15:21.499Z,101080.09
2022-07-29T23:17:48.028Z,101071.84
2022-07-29T23:20:15.012Z,101066.25
2022-07-29T23:22:42.246Z,101057.59
2022-07-29T23:25:08.850Z,101056.97
2022-07-29T23:27:38.001Z,101057.16
2022-07-29T23:30:06.718Z,101054.47
2022-07-29T23:32:33.308Z,101046.94
2022-07-29T23:34:59.880Z,101043.44
2022-07-29T23:37:27.051Z,101053.16
2022-07-29T23:39:53.882Z,101053.97
2022-07-29T23:42:20.399Z,101053.59
2022-07-29T23:44:46.932Z,101052.53
2022-07-29T23:47:13.768Z,101050.25
2022-07-29T23:49:40.367Z,101051.69
2022-07-29T23:52:07.101Z,101050.25
2022-07-29T23:54:33.738Z,101053.13
2022-07-29T23:57:01.114Z,101053.13
2022-07-29T23:59:27.867Z,101049.81
